Time;durP1;ratioP1;P1;durP2;ratioP2;P2;SDS_P1;SDS_P2;PMS_P1;PMS_P2;Temp;Humidity;BMP_temperature;BMP_pressure;BME280_temperature;BME280_humidity;BME280_pressure;Samples;Min_cycle;Max_cycle;Signal;HPM_P1;HPM_P2
2021/06/08 00:00:52;;;;;;;1999.90;999.90;;;17.70;99.90;;;;;;5017702;28;20413;-81
2021/06/08 00:03:17;;;;;;;1999.90;999.90;;;17.70;99.90;;;;;;5019013;28;20445;-80
2021/06/08 00:05:43;;;;;;;1999.90;999.90;;;17.60;99.90;;;;;;5019086;28;20166;-81
2021/06/08 00:08:09;;;;;;;1999.90;999.90;;;17.70;99.90;;;;;;5017532;28;20210;-81
2021/06/08 00:10:35;;;;;;;1999.90;999.90;;;17.70;99.90;;;;;;5017655;28;20653;-81
2021/06/08 00:13:00;;;;;;;1999.90;999.90;;;17.70;99.90;;;;;;5018863;28;20413;-80
2021/06/08 00:15:26;;;;;;;1999.90;999.90;;;17.70;99.90;;;;;;5018943;28;20674;-80
2021/06/08 00:17:52;;;;;;;1999.90;999.90;;;17.80;99.90;;;;;;5019011;28;20514;-81
2021/06/08 00:20:18;;;;;;;1999.90;999.90;;;17.80;99.90;;;;;;5018501;28;20533;-81
2021/06/08 00:22:43;;;;;;;1999.90;999.90;;;17.80;99.90;;;;;;5018968;28;20178;-81
2021/06/08 00:25:10;;;;;;;1999.90;999.90;;;17.80;99.90;;;;;;5017909;28;20192;-81
2021/06/08 00:27:35;;;;;;;1999.90;999.90;;;17.80;99.90;;;;;;5018463;28;20181;-80
2021/06/08 00:30:01;;;;;;;1999.90;999.90;;;17.80;99.90;;;;;;5018222;28;20424;-81
2021/06/08 00:32:27;;;;;;;1999.90;999.90;;;17.80;99.90;;;;;;5018339;28;20170;-80
2021/06/08 00:34:53;;;;;;;1999.90;999.90;;;17.80;99.90;;;;;;5018458;28;20448;-80
2021/06/08 00:37:19;;;;;;;1999.90;999.90;;;17.70;99.90;;;;;;5017100;28;20446;-80
2021/06/08 00:39:44;;;;;;;1999.90;999.90;;;17.80;99.90;;;;;;5018738;28;20204;-81
2021/06/08 00:42:10;;;;;;;1999.90;999.90;;;17.80;99.90;;;;;;5018676;28;20652;-81
2021/06/08 00:44:36;;;;;;;1999.90;999.90;;;17.80;99.90;;;;;;5018694;28;20565;-81
2021/06/08 00:47:01;;;;;;;1999.90;999.90;;;17.80;99.90;;;;;;5018568;28;20166;-81
2021/06/08 00:49:27;;;;;;;1999.90;999.90;;;17.70;99.90;;;;;;5018140;28;20190;-81
2021/06/08 00:51:53;;;;;;;1999.90;999.90;;;17.70;99.90;;;;;;5018400;28;20651;-81
2021/06/08 00:54:18;;;;;;;1999.90;999.90;;;17.70;99.90;;;;;;5018926;28;20167;-81
2021/06/08 00:56:45;;;;;;;1999.90;999.90;;;17.60;99.90;;;;;;5018327;28;20186;-81
2021/06/08 00:59:12;;;;;;;1999.90;999.90;;;17.60;99.90;;;;;;5018290;28;20184;-81
2021/06/08 01:01:38;;;;;;;1999.90;999.90;;;17.60;99.90;;;;;;5018230;28;20401;-80
2021/06/08 01:04:10;;;;;;;1999.90;999.90;;;17.60;99.90;;;;;;5018020;28;20401;-81
2021/06/08 01:06:38;;;;;;;1999.90;999.90;;;17.60;99.90;;;;;;5018337;28;20801;-81
2021/06/08 01:09:05;;;;;;;1999.90;999.90;;;17.60;99.90;;;;;;5018178;28;21031;-80
2021/06/08 01:11:31;;;;;;;1999.90;999.90;;;17.70;99.90;;;;;;5016525;28;20804;-81
2021/06/08 01:13:57;;;;;;;1999.90;999.90;;;17.70;99.90;;;;;;5018332;28;20759;-81
2021/06/08 01:16:23;;;;;;;1999.90;999.90;;;17.60;99.90;;;;;;5017940;28;20470;-81
2021/06/08 01:18:50;;;;;;;1999.90;999.90;;;17.60;99.90;;;;;;5018178;28;20248;-80
2021/06/08 01:21:15;;;;;;;1999.90;999.90;;;17.70;99.90;;;;;;5017731;28;20408;-81
2021/06/08 01:23:43;;;;;;;1999.90;999.90;;;17.70;99.90;;;;;;5017953;28;20401;-81
2021/06/08 01:26:09;;;;;;;1999.90;999.90;;;17.50;99.90;;;;;;5016543;28;20187;-81
2021/06/08 01:28:36;;;;;;;1999.90;999.90;;;17.50;99.90;;;;;;5018437;28;20918;-81
2021/06/08 01:31:12;;;;;;;1999.90;999.90;;;17.30;99.90;;;;;;5017771;28;20522;-81
2021/06/08 01:33:40;;;;;;;1999.90;999.90;;;17.30;99.90;;;;;;5017467;28;20464;-80
2021/06/08 01:36:18;;;;;;;1999.90;999.90;;;17.50;99.90;;;;;;5017770;28;21037;-81
2021/06/08 01:38:44;;;;;;;1999.90;999.90;;;17.40;99.90;;;;;;5018526;28;20456;-81
2021/06/08 01:41:14;;;;;;;1999.90;999.90;;;17.40;99.90;;;;;;5016070;28;20409;-81
2021/06/08 01:43:41;;;;;;;1999.90;999.90;;;17.30;99.90;;;;;;5016154;28;20520;-81
2021/06/08 01:46:08;;;;;;;1999.90;999.90;;;17.30;99.90;;;;;;5016559;28;20420;-81
2021/06/08 01:48:33;;;;;;;1999.90;999.90;;;17.40;99.90;;;;;;5017445;28;20462;-80
2021/06/08 01:51:18;;;;;;;1999.90;999.90;;;17.30;99.90;;;;;;5016204;28;20415;-81
2021/06/08 01:53:53;;;;;;;1999.90;999.90;;;17.40;99.90;;;;;;5016989;28;20157;-81
2021/06/08 01:56:23;;;;;;;1999.90;999.90;;;17.40;99.90;;;;;;5018260;28;20503;-81
2021/06/08 01:59:09;;;;;;;1999.90;999.90;;;17.40;99.90;;;;;;5018233;28;20437;-80
2021/06/08 02:02:17;;;;;;;1999.90;999.90;;;17.30;99.90;;;;;;5017737;28;20400;-81
2021/06/08 02:05:01;;;;;;;1999.90;999.90;;;17.30;99.90;;;;;;5017875;28;20934;-81
2021/06/08 02:07:43;;;;;;;1999.90;999.90;;;17.30;99.90;;;;;;5016784;28;20410;-81
2021/06/08 02:10:28;;;;;;;1999.90;999.90;;;17.30;99.90;;;;;;5017606;28;20981;-81
2021/06/08 02:13:26;;;;;;;1999.90;999.90;;;17.30;99.90;;;;;;5015488;28;20413;-80
2021/06/08 02:16:09;;;;;;;1999.90;999.90;;;17.30;99.90;;;;;;5020037;28;20440;-81
2021/06/08 02:18:36;;;;;;;1999.90;999.90;;;17.30;99.90;;;;;;5021373;28;20423;-81
2021/06/08 02:21:03;;;;;;;1999.90;999.90;;;17.30;99.90;;;;;;5021185;28;20405;-81
2021/06/08 02:23:31;;;;;;;1999.90;999.90;;;17.30;99.90;;;;;;5021377;28;20461;-81
2021/06/08 02:25:58;;;;;;;1999.90;999.90;;;17.30;99.90;;;;;;5019598;28;20907;-81
2021/06/08 02:28:31;;;;;;;1999.90;999.90;;;17.30;99.90;;;;;;5021520;28;20429;-80
2021/06/08 02:31:02;;;;;;;1999.90;999.90;;;17.30;99.90;;;;;;5021452;28;20400;-81
2021/06/08 02:33:29;;;;;;;1999.90;999.90;;;17.30;99.90;;;;;;5021133;28;20396;-81
2021/06/08 02:35:56;;;;;;;1999.90;999.90;;;17.20;99.90;;;;;;5021067;28;20815;-81
2021/06/08 02:38:23;;;;;;;1999.90;999.90;;;17.20;99.90;;;;;;5019511;28;20433;-81
2021/06/08 02:40:50;;;;;;;1999.90;999.90;;;17.20;99.90;;;;;;5019736;28;20416;-81
2021/06/08 02:43:19;;;;;;;1999.90;999.90;;;17.20;99.90;;;;;;5019547;28;20413;-81
2021/06/08 02:45:45;;;;;;;1999.90;999.90;;;17.10;99.90;;;;;;5019295;28;20503;-81
2021/06/08 02:48:13;;;;;;;1999.90;999.90;;;17.10;99.90;;;;;;5020334;28;20424;-81
2021/06/08 02:50:39;;;;;;;1999.90;999.90;;;17.10;99.90;;;;;;5020033;28;20419;-81
2021/06/08 02:53:05;;;;;;;1999.90;999.90;;;17.20;99.90;;;;;;5020777;28;20499;-81
2021/06/08 02:55:33;;;;;;;1999.90;999.90;;;17.20;99.90;;;;;;5019125;28;20737;-81
2021/06/08 02:58:00;;;;;;;1999.90;999.90;;;17.10;99.90;;;;;;5019414;28;20503;-80
2021/06/08 03:00:27;;;;;;;1999.90;999.90;;;17.20;99.90;;;;;;5020202;28;20416;-80
2021/06/08 03:02:58;;;;;;;1999.90;999.90;;;17.30;99.90;;;;;;5020186;28;20404;-81
2021/06/08 03:05:27;;;;;;;1999.90;999.90;;;17.30;99.90;;;;;;5020753;28;20405;-81
2021/06/08 03:07:59;;;;;;;1999.90;999.90;;;17.30;99.90;;;;;;5019266;28;20485;-80
2021/06/08 03:10:29;;;;;;;1999.90;999.90;;;17.30;99.90;;;;;;5019937;28;20419;-81
2021/06/08 03:12:57;;;;;;;1999.90;999.90;;;17.30;99.90;;;;;;5020840;28;20719;-80
2021/06/08 03:15:29;;;;;;;1999.90;999.90;;;17.30;99.90;;;;;;5019856;28;20443;-81
2021/06/08 03:17:56;;;;;;;1999.90;999.90;;;17.30;99.90;;;;;;5020290;28;20415;-80
2021/06/08 03:20:35;;;;;;;1999.90;999.90;;;17.30;99.90;;;;;;5019943;28;20499;-81
2021/06/08 03:23:04;;;;;;;1999.90;999.90;;;17.20;99.90;;;;;;5019872;28;20440;-80
2021/06/08 03:25:32;;;;;;;1999.90;999.90;;;17.20;99.90;;;;;;5019618;28;20412;-81
2021/06/08 03:27:59;;;;;;;1999.90;999.90;;;17.20;99.90;;;;;;5019377;28;20461;-81
2021/06/08 03:30:26;;;;;;;1999.90;999.90;;;17.20;99.90;;;;;;5019917;28;20879;-80
2021/06/08 03:32:53;;;;;;;1999.90;999.90;;;17.10;99.90;;;;;;5019513;28;20436;-80
2021/06/08 03:35:21;;;;;;;1999.90;999.90;;;17.20;99.90;;;;;;5020082;28;20434;-80
2021/06/08 03:37:48;;;;;;;1999.90;999.90;;;17.10;99.90;;;;;;5019923;28;20935;-80
2021/06/08 03:40:16;;;;;;;1999.90;999.90;;;17.10;99.90;;;;;;5019050;28;20401;-80
2021/06/08 03:42:43;;;;;;;1999.90;999.90;;;17.20;99.90;;;;;;5019321;28;20407;-80
2021/06/08 03:45:14;;;;;;;1999.90;999.90;;;17.10;99.90;;;;;;5019747;28;20830;-80
2021/06/08 03:47:44;;;;;;;1999.90;999.90;;;17.20;99.90;;;;;;5019179;28;20399;-80
2021/06/08 03:50:12;;;;;;;1999.90;999.90;;;17.10;99.90;;;;;;5018821;28;20445;-81
2021/06/08 03:52:39;;;;;;;1999.90;999.90;;;17.10;99.90;;;;;;5019414;28;20442;-80
2021/06/08 03:55:06;;;;;;;1999.90;999.90;;;17.10;99.90;;;;;;5018239;28;20412;-80
2021/06/08 03:57:38;;;;;;;1999.90;999.90;;;17.00;99.90;;;;;;5019140;28;20436;-80
2021/06/08 04:00:06;;;;;;;1999.90;999.90;;;16.90;99.90;;;;;;5019223;28;20433;-80
2021/06/08 04:02:32;;;;;;;1999.90;999.90;;;16.90;99.90;;;;;;5018980;28;20410;-80
2021/06/08 04:05:00;;;;;;;1999.90;999.90;;;16.80;99.90;;;;;;5019412;28;20815;-80
2021/06/08 04:07:26;;;;;;;1999.90;999.90;;;16.90;99.90;;;;;;5019207;28;20399;-80
2021/06/08 04:09:51;;;;;;;1999.90;999.90;;;17.00;99.90;;;;;;5018796;28;20454;-80
2021/06/08 04:12:21;;;;;;;1999.90;999.90;;;17.10;99.90;;;;;;5019408;28;20257;-80
2021/06/08 04:14:48;;;;;;;1999.90;999.90;;;17.10;99.90;;;;;;5019179;28;20177;-80
2021/06/08 04:17:15;;;;;;;1999.90;999.90;;;17.10;99.90;;;;;;5019514;28;20971;-80
2021/06/08 04:19:42;;;;;;;1999.90;999.90;;;17.20;99.90;;;;;;5018842;28;20421;-80
2021/06/08 04:22:07;;;;;;;1999.90;999.90;;;17.20;99.90;;;;;;5018694;28;20785;-80
2021/06/08 04:24:33;;;;;;;1999.90;999.90;;;17.30;99.90;;;;;;5019148;28;20405;-81
2021/06/08 04:27:00;;;;;;;1999.90;999.90;;;17.30;99.90;;;;;;5019061;28;20569;-81
2021/06/08 04:29:27;;;;;;;1999.90;999.90;;;17.30;99.90;;;;;;5018478;28;20193;-80
2021/06/08 04:31:56;;;;;;;1999.90;999.90;;;17.30;99.90;;;;;;5018137;28;20488;-80
2021/06/08 04:34:22;;;;;;;1999.90;999.90;;;17.30;99.90;;;;;;5017390;28;20405;-80
2021/06/08 04:36:49;;;;;;;1999.90;999.90;;;17.40;99.90;;;;;;5017443;28;20527;-81
2021/06/08 04:39:15;;;;;;;1999.90;999.90;;;17.40;99.90;;;;;;5018162;28;20485;-80
2021/06/08 04:41:41;;;;;;;1999.90;999.90;;;17.50;99.90;;;;;;5017247;28;20416;-81
2021/06/08 04:44:07;;;;;;;1999.90;999.90;;;17.40;99.90;;;;;;5018787;28;20424;-80
2021/06/08 04:46:38;;;;;;;1999.90;999.90;;;17.50;99.90;;;;;;5016893;28;20401;-80
2021/06/08 04:49:04;;;;;;;1999.90;999.90;;;17.50;99.90;;;;;;5018346;28;20416;-80
2021/06/08 04:51:32;;;;;;;1999.90;999.90;;;17.60;99.90;;;;;;5017097;28;20790;-80
2021/06/08 04:53:57;;;;;;;1999.90;999.90;;;17.60;99.90;;;;;;5018212;28;20904;-80
2021/06/08 04:56:23;;;;;;;1999.90;999.90;;;17.60;99.90;;;;;;5017920;28;20451;-81
2021/06/08 04:58:49;;;;;;;1999.90;999.90;;;17.60;99.90;;;;;;5018432;28;20205;-80
2021/06/08 05:01:27;;;;;;;1999.90;999.90;;;17.70;99.90;;;;;;5018156;28;20163;-81
2021/06/08 05:03:59;;;;;;;1999.90;999.90;;;17.70;99.90;;;;;;5018437;28;20150;-80
2021/06/08 05:06:39;;;;;;;1999.90;999.90;;;17.80;99.90;;;;;;5017949;28;20849;-80
2021/06/08 05:09:27;;;;;;;1999.90;999.90;;;17.80;99.90;;;;;;5017919;28;20440;-81
2021/06/08 05:11:55;;;;;;;1999.90;999.90;;;17.80;99.90;;;;;;5018170;28;20402;-80
2021/06/08 05:14:22;;;;;;;1999.90;999.90;;;17.90;99.90;;;;;;5018128;28;20413;-80
2021/06/08 05:16:49;;;;;;;1999.90;999.90;;;17.90;99.90;;;;;;5018273;28;20967;-80
2021/06/08 05:19:17;;;;;;;1999.90;999.90;;;17.90;99.90;;;;;;5017574;28;20948;-80
2021/06/08 05:21:43;;;;;;;1999.90;999.90;;;18.00;99.90;;;;;;5018032;28;20487;-80
2021/06/08 05:24:11;;;;;;;1999.90;999.90;;;18.10;99.90;;;;;;5017832;28;20493;-80
2021/06/08 05:26:52;;;;;;;1999.90;999.90;;;18.10;99.90;;;;;;4974649;28;20937;-80
2021/06/08 05:29:19;;;;;;;1999.90;999.90;;;18.10;99.90;;;;;;5017670;28;20492;-80
2021/06/08 05:31:46;;;;;;;1999.90;999.90;;;18.10;99.90;;;;;;5017489;28;20428;-81
2021/06/08 05:34:13;;;;;;;1999.90;999.90;;;18.10;99.90;;;;;;5017572;28;20401;-80
2021/06/08 05:36:40;;;;;;;1999.90;999.90;;;18.10;99.90;;;;;;5017930;28;20575;-81
2021/06/08 05:39:07;;;;;;;1999.90;999.90;;;18.10;99.90;;;;;;5016152;28;20460;-80
2021/06/08 05:41:33;;;;;;;1999.90;999.90;;;18.10;99.90;;;;;;5016365;28;20440;-80
2021/06/08 05:43:58;;;;;;;1999.90;999.90;;;18.20;99.90;;;;;;5016582;28;20401;-80
2021/06/08 05:46:32;;;;;;;1999.90;999.90;;;18.20;99.90;;;;;;5016192;28;20412;-80
2021/06/08 05:48:59;;;;;;;1999.90;999.90;;;18.20;99.90;;;;;;5015475;28;20220;-80
2021/06/08 05:51:28;;;;;;;1999.90;999.90;;;18.30;99.90;;;;;;5016018;28;20440;-80
2021/06/08 05:53:54;;;;;;;1999.90;999.90;;;18.40;99.90;;;;;;5014653;28;20485;-80
2021/06/08 05:56:21;;;;;;;1999.90;999.90;;;18.40;99.90;;;;;;5015753;28;20963;-80
2021/06/08 05:58:47;;;;;;;1999.90;999.90;;;18.50;99.90;;;;;;5015910;28;20433;-80
2021/06/08 06:01:13;;;;;;;1999.90;999.90;;;18.50;99.90;;;;;;5015673;28;20409;-81
2021/06/08 06:03:40;;;;;;;1999.90;999.90;;;18.50;99.90;;;;;;5015938;28;20165;-80
2021/06/08 06:06:08;;;;;;;1999.90;999.90;;;18.50;99.90;;;;;;5015667;28;20409;-80
2021/06/08 06:17:23;;;;;;;;;;;;;;;;;;;;;
2021/06/08 06:30:35;;;;;;;1999.90;999.90;;;18.90;99.90;;;;;;5042954;28;20438;-87
2021/06/08 06:34:11;;;;;;;1999.90;999.90;;;18.90;99.90;;;;;;5052835;28;20415;-87
2021/06/08 06:44:51;;;;;;;1999.90;999.90;;;19.10;99.90;;;;;;5024902;28;20825;-87
2021/06/08 06:48:20;;;;;;;1999.90;999.90;;;19.30;99.90;;;;;;5011629;28;20420;-87
2021/06/08 06:55:21;;;;;;;;;;;;;;;;;;;;;
2021/06/08 07:09:22;;;;;;;1999.90;999.90;;;19.60;99.90;;;;;;4955059;22;20528;-87
2021/06/08 07:22:17;;;;;;;;;;;;;;;;;;;;;
2021/06/08 07:25:40;;;;;;;1999.90;999.90;;;20.10;99.90;;;;;;4993371;28;20772;-87
2021/06/08 07:31:41;;;;;;;1999.90;999.90;;;20.40;99.90;;;;;;3977495;26;20493;-87
2021/06/08 07:52:03;;;;;;;;;;;;;;;;;;;;;
2021/06/08 08:16:38;;;;;;;1999.90;999.90;;;22.00;99.90;;;;;;5044177;26;20484;-88
2021/06/08 08:24:46;;;;;;;;;;;;;;;;;;;;;
2021/06/08 09:00:18;;;;;;;1999.90;999.90;;;21.90;99.90;;;;;;5094346;28;20810;-85
2021/06/08 09:07:24;;;;;;;1999.90;999.90;;;22.40;99.90;;;;;;5012102;28;20729;-85
2021/06/08 09:10:49;;;;;;;;;;;;;;;;;;;;;
2021/06/08 09:17:15;;;;;;;;;;;;;;;;;;;;;
2021/06/08 09:35:02;;;;;;;;;;;;;;;;;;;;;
2021/06/08 09:44:27;;;;;;;;;;;;;;;;;;;;;
2021/06/08 09:54:54;;;;;;;1999.90;999.90;;;22.70;97.40;;;;;;4952827;29;20412;-88
2021/06/08 10:02:00;;;;;;;;;;;;;;;;;;;;;
2021/06/08 10:05:13;;;;;;;;;;;;;;;;;;;;;
2021/06/08 10:11:53;;;;;;;1999.90;999.90;;;24.30;71.60;;;;;;4952564;29;20399;-88
2021/06/08 10:18:55;;;;;;;;;;;;;;;;;;;;;
2021/06/08 10:25:53;;;;;;;;;;;;;;;;;;;;;
2021/06/08 10:46:50;;;;;;;1999.90;999.90;;;25.00;41.60;;;;;;4899589;29;20414;-87
2021/06/08 10:54:07;;;;;;;1999.90;999.90;;;25.00;44.10;;;;;;4879940;29;20419;-87
2021/06/08 10:57:35;;;;;;;;;;;;;;;;;;;;;
2021/06/08 11:11:37;;;;;;;1999.90;999.90;;;25.80;37.10;;;;;;3971704;22;20493;-88
2021/06/08 11:33:20;;;;;;;;;;;;;;;;;;;;;
2021/06/08 11:43:45;;;;;;;;;;;;;;;;;;;;;
2021/06/08 11:50:51;;;;;;;;;;;;;;;;;;;;;
2021/06/08 12:10:47;;;;;;;1999.90;999.90;;;25.60;21.10;;;;;;5152865;22;20840;-83
2021/06/08 12:13:13;;;;;;;1999.90;999.90;;;25.70;23.20;;;;;;5100262;28;20427;-82
2021/06/08 12:15:41;;;;;;;1999.90;999.90;;;25.60;24.50;;;;;;5081996;28;20407;-83
2021/06/08 12:18:18;;;;;;;1999.90;999.90;;;25.80;24.70;;;;;;5098896;28;21018;-83
2021/06/08 12:20:45;;;;;;;1999.90;999.90;;;25.90;19.70;;;;;;5098221;28;20404;-83
2021/06/08 12:23:24;;;;;;;1999.90;999.90;;;26.10;20.70;;;;;;5081770;28;20479;-82
2021/06/08 12:25:49;;;;;;;1999.90;999.90;;;26.20;19.80;;;;;;5099281;28;20457;-83
2021/06/08 12:28:15;;;;;;;1999.90;999.90;;;25.90;21.70;;;;;;5099659;28;20443;-82
2021/06/08 12:30:41;;;;;;;1999.90;999.90;;;26.10;99.90;;;;;;5099718;28;20553;-82
2021/06/08 12:33:07;;;;;;;1999.90;999.90;;;26.10;22.20;;;;;;5098978;28;20579;-83
2021/06/08 12:35:40;;;;;;;1999.90;999.90;;;26.00;19.90;;;;;;5080695;28;20189;-82
2021/06/08 12:38:18;;;;;;;1999.90;999.90;;;25.90;19.90;;;;;;5098241;28;20403;-82
2021/06/08 12:40:57;;;;;;;1999.90;999.90;;;25.70;19.50;;;;;;5098734;28;20899;-82
2021/06/08 12:43:23;;;;;;;1999.90;999.90;;;25.70;22.40;;;;;;5099170;28;20388;-82
2021/06/08 12:45:59;;;;;;;1999.90;999.90;;;25.80;20.50;;;;;;5081215;28;20469;-82
2021/06/08 12:48:26;;;;;;;1999.90;999.90;;;25.90;19.80;;;;;;5097633;28;20427;-83
2021/06/08 12:50:52;;;;;;;1999.90;999.90;;;26.10;23.50;;;;;;5098952;28;20407;-82
2021/06/08 12:53:23;;;;;;;1999.90;999.90;;;26.20;22.90;;;;;;5099727;28;20847;-83
2021/06/08 12:55:50;;;;;;;1999.90;999.90;;;26.30;18.30;;;;;;5098784;28;20408;-82
2021/06/08 12:58:17;;;;;;;1999.90;999.90;;;26.40;16.20;;;;;;5096657;28;20449;-82
2021/06/08 13:00:43;;;;;;;1999.90;999.90;;;26.40;18.90;;;;;;5098529;28;20404;-81
2021/06/08 13:03:10;;;;;;;1999.90;999.90;;;26.60;19.30;;;;;;5080568;28;20419;-83
2021/06/08 13:05:38;;;;;;;1999.90;999.90;;;26.70;19.90;;;;;;5098900;28;20491;-82
2021/06/08 13:08:05;;;;;;;1999.90;999.90;;;26.70;19.90;;;;;;5097205;28;20490;-83
2021/06/08 13:10:38;;;;;;;1999.90;999.90;;;26.80;21.60;;;;;;5099077;28;20423;-82
2021/06/08 13:13:10;;;;;;;1999.90;999.90;;;26.70;14.90;;;;;;5098123;28;20413;-82
2021/06/08 13:15:46;;;;;;;1999.90;999.90;;;26.40;19.70;;;;;;5096903;28;20503;-82
2021/06/08 13:18:16;;;;;;;1999.90;999.90;;;26.40;18.70;;;;;;5098283;28;20470;-82
2021/06/08 13:20:53;;;;;;;1999.90;999.90;;;26.40;16.30;;;;;;5098837;28;20430;-82
2021/06/08 13:23:25;;;;;;;1999.90;999.90;;;26.80;18.10;;;;;;5098398;28;20380;-82
2021/06/08 13:26:08;;;;;;;1999.90;999.90;;;27.20;17.40;;;;;;5098701;28;20484;-82
2021/06/08 13:28:39;;;;;;;1999.90;999.90;;;27.20;15.00;;;;;;5098483;28;20499;-82
2021/06/08 13:31:08;;;;;;;1999.90;999.90;;;27.50;13.50;;;;;;5098619;28;20384;-82
2021/06/08 13:33:37;;;;;;;1999.90;999.90;;;27.60;9.50;;;;;;5080745;28;20905;-82
2021/06/08 13:36:03;;;;;;;1999.90;999.90;;;27.70;8.00;;;;;;5097893;28;20449;-82
2021/06/08 13:38:29;;;;;;;1999.90;999.90;;;27.80;7.40;;;;;;5097764;28;20425;-82
2021/06/08 13:40:56;;;;;;;1999.90;999.90;;;27.70;5.60;;;;;;5079672;28;20908;-82
2021/06/08 13:43:22;;;;;;;1999.90;999.90;;;27.60;3.20;;;;;;5079919;28;20575;-82
2021/06/08 13:45:51;;;;;;;1999.90;999.90;;;27.70;5.70;;;;;;5098170;28;20432;-82
2021/06/08 13:48:38;;;;;;;1999.90;999.90;;;28.00;7.70;;;;;;5096496;28;20183;-82
2021/06/08 13:51:17;;;;;;;1999.90;999.90;;;28.20;5.70;;;;;;5098550;28;20394;-82
2021/06/08 13:53:45;;;;;;;1999.90;999.90;;;28.10;1.00;;;;;;5096933;28;20416;-82
2021/06/08 13:56:19;;;;;;;1999.90;999.90;;;27.80;1.50;;;;;;5098263;28;20437;-82
2021/06/08 14:01:33;;;;;;;1999.90;999.90;;;27.70;3.00;;;;;;5098051;28;20746;-82
2021/06/08 14:04:10;;;;;;;1999.90;999.90;;;27.70;1.60;;;;;;5097504;28;20405;-82
2021/06/08 14:06:47;;;;;;;1999.90;999.90;;;27.80;2.00;;;;;;5097741;28;20397;-82
2021/06/08 14:09:12;;;;;;;1999.90;999.90;;;28.10;1.40;;;;;;5079425;28;20480;-83
2021/06/08 14:11:55;;;;;;;1999.90;999.90;;;28.50;1.00;;;;;;5100321;28;20413;-82
2021/06/08 14:14:32;;;;;;;1999.90;999.90;;;28.50;1.00;;;;;;5102103;28;20610;-82
2021/06/08 14:17:15;;;;;;;1999.90;999.90;;;28.30;1.00;;;;;;5101401;28;20440;-82
2021/06/08 14:19:42;;;;;;;1999.90;999.90;;;27.90;1.00;;;;;;5101676;28;20420;-82
2021/06/08 14:22:09;;;;;;;1999.90;999.90;;;27.80;1.00;;;;;;5083584;28;20404;-82
2021/06/08 14:24:38;;;;;;;1999.90;999.90;;;27.90;1.00;;;;;;5100942;28;20421;-82
2021/06/08 14:27:15;;;;;;;1999.90;999.90;;;27.70;1.00;;;;;;5099970;28;20422;-82
2021/06/08 14:29:41;;;;;;;1999.90;999.90;;;27.60;1.00;;;;;;5102197;28;20424;-82
2021/06/08 14:32:07;;;;;;;1999.90;999.90;;;27.50;1.00;;;;;;5101608;28;20409;-82
2021/06/08 14:34:33;;;;;;;1999.90;999.90;;;27.60;1.00;;;;;;5101503;28;20429;-82
2021/06/08 14:36:59;;;;;;;1999.90;999.90;;;27.80;1.00;;;;;;5101948;28;20440;-82
2021/06/08 14:39:25;;;;;;;1999.90;999.90;;;28.20;3.20;;;;;;5101167;28;20519;-82
2021/06/08 14:41:52;;;;;;;1999.90;999.90;;;28.40;1.00;;;;;;5100396;28;20204;-81
2021/06/08 14:44:18;;;;;;;1999.90;999.90;;;28.30;1.00;;;;;;5082743;28;20475;-82
2021/06/08 14:46:46;;;;;;;1999.90;999.90;;;28.00;1.00;;;;;;5101399;28;20401;-82
2021/06/08 14:49:12;;;;;;;1999.90;999.90;;;27.70;1.00;;;;;;5101164;28;20916;-82
2021/06/08 14:51:39;;;;;;;1999.90;999.90;;;26.80;1.00;;;;;;5101014;28;20429;-82
2021/06/08 14:54:05;;;;;;;1999.90;999.90;;;26.40;1.60;;;;;;5082906;28;20421;-82
2021/06/08 14:56:31;;;;;;;1999.90;999.90;;;26.50;1.80;;;;;;5100727;28;20523;-82
2021/06/08 14:58:57;;;;;;;1999.90;999.90;;;26.80;1.20;;;;;;5101486;28;20475;-82
2021/06/08 15:01:23;;;;;;;1999.90;999.90;;;27.10;1.00;;;;;;5101312;28;20163;-82
2021/06/08 15:03:49;;;;;;;1999.90;999.90;;;27.20;1.70;;;;;;5083045;28;20475;-82
2021/06/08 15:06:15;;;;;;;1999.90;999.90;;;27.30;2.70;;;;;;5082858;28;20170;-82
2021/06/08 15:08:41;;;;;;;1999.90;999.90;;;27.20;1.00;;;;;;5100882;28;20434;-82
2021/06/08 15:11:08;;;;;;;1999.90;999.90;;;27.20;1.00;;;;;;5100534;28;20439;-82
2021/06/08 15:13:34;;;;;;;1999.90;999.90;;;27.10;1.00;;;;;;5099397;28;20409;-82
2021/06/08 15:16:00;;;;;;;1999.90;999.90;;;27.10;1.00;;;;;;5082944;28;20401;-82
2021/06/08 15:18:26;;;;;;;1999.90;999.90;;;27.10;1.00;;;;;;5100963;28;20486;-82
2021/06/08 15:20:52;;;;;;;1999.90;999.90;;;26.90;1.00;;;;;;5100883;28;20908;-82
2021/06/08 15:23:18;;;;;;;1999.90;999.90;;;27.10;1.00;;;;;;5100147;28;20566;-82
2021/06/08 15:25:45;;;;;;;1999.90;999.90;;;27.30;1.00;;;;;;5100859;28;20454;-82
2021/06/08 15:28:12;;;;;;;1999.90;999.90;;;27.40;1.00;;;;;;5100733;28;20444;-82
2021/06/08 15:30:40;;;;;;;1999.90;999.90;;;27.50;1.00;;;;;;5099294;28;20417;-82
2021/06/08 15:33:06;;;;;;;1999.90;999.90;;;28.10;1.00;;;;;;5098943;28;20489;-81
2021/06/08 15:35:32;;;;;;;1999.90;999.90;;;28.70;1.00;;;;;;5082477;28;20402;-81
2021/06/08 15:37:58;;;;;;;1999.90;999.90;;;28.40;1.00;;;;;;5098860;28;20445;-82
2021/06/08 15:40:24;;;;;;;1999.90;999.90;;;28.50;1.00;;;;;;5100006;28;20485;-82
2021/06/08 15:42:50;;;;;;;1999.90;999.90;;;28.70;1.00;;;;;;5100142;28;20246;-82
2021/06/08 15:45:16;;;;;;;1999.90;999.90;;;28.80;1.00;;;;;;5082170;28;20429;-82
2021/06/08 15:47:42;;;;;;;1999.90;999.90;;;28.40;1.00;;;;;;5081989;28;20267;-82
2021/06/08 15:50:09;;;;;;;1999.90;999.90;;;28.10;1.00;;;;;;5099813;28;20445;-82
2021/06/08 15:52:35;;;;;;;1999.90;999.90;;;27.40;1.00;;;;;;5100045;28;20982;-82
2021/06/08 15:55:00;;;;;;;1999.90;999.90;;;27.00;1.00;;;;;;5100190;28;20397;-82
2021/06/08 15:57:26;;;;;;;1999.90;999.90;;;26.90;1.00;;;;;;5100408;28;20519;-81
2021/06/08 15:59:52;;;;;;;1999.90;999.90;;;26.70;1.00;;;;;;5099102;28;20336;-82
2021/06/08 16:02:18;;;;;;;1999.90;999.90;;;26.90;1.00;;;;;;5081677;28;20185;-82
2021/06/08 16:04:43;;;;;;;1999.90;999.90;;;26.90;1.00;;;;;;5099555;28;20190;-81
2021/06/08 16:07:09;;;;;;;1999.90;999.90;;;26.70;1.00;;;;;;5098992;28;20550;-82
2021/06/08 16:09:35;;;;;;;1999.90;999.90;;;26.40;1.00;;;;;;5098673;28;20194;-82
2021/06/08 16:12:01;;;;;;;1999.90;999.90;;;26.40;1.00;;;;;;5099169;28;20159;-82
2021/06/08 16:14:27;;;;;;;1999.90;999.90;;;26.30;1.00;;;;;;5099604;28;20450;-82
2021/06/08 16:16:52;;;;;;;1999.90;999.90;;;26.20;1.00;;;;;;5099015;28;20508;-82
2021/06/08 16:19:19;;;;;;;1999.90;999.90;;;26.10;1.00;;;;;;5098957;28;20186;-81
2021/06/08 16:21:47;;;;;;;1999.90;999.90;;;26.00;1.00;;;;;;5099826;28;20174;-81
2021/06/08 16:24:13;;;;;;;1999.90;999.90;;;25.90;1.00;;;;;;5081706;28;20413;-82
2021/06/08 16:26:41;;;;;;;1999.90;999.90;;;25.90;1.00;;;;;;5099576;28;20808;-82
2021/06/08 16:29:07;;;;;;;1999.90;999.90;;;26.00;1.00;;;;;;5081056;28;20428;-82
2021/06/08 16:31:33;;;;;;;1999.90;999.90;;;26.30;1.00;;;;;;5097864;28;20401;-82
2021/06/08 16:33:59;;;;;;;1999.90;999.90;;;26.20;1.00;;;;;;5096944;28;20411;-82
2021/06/08 16:36:25;;;;;;;1999.90;999.90;;;26.20;1.00;;;;;;5080107;28;20414;-82
2021/06/08 16:38:53;;;;;;;1999.90;999.90;;;26.00;1.00;;;;;;5098817;28;20243;-83
2021/06/08 16:41:19;;;;;;;1999.90;999.90;;;26.00;1.00;;;;;;5080620;28;20166;-82
2021/06/08 16:43:47;;;;;;;1999.90;999.90;;;25.90;1.00;;;;;;5097403;28;20487;-82
2021/06/08 16:46:13;;;;;;;1999.90;999.90;;;25.80;99.90;;;;;;5079316;28;20189;-82
2021/06/08 16:48:40;;;;;;;1999.90;999.90;;;25.70;99.90;;;;;;5099644;28;20416;-82
2021/06/08 16:53:32;;;;;;;1999.90;999.90;;;26.10;99.90;;;;;;5099204;28;20730;-81
2021/06/08 16:55:58;;;;;;;1999.90;999.90;;;26.50;99.90;;;;;;5099868;28;20220;-83
2021/06/08 16:58:24;;;;;;;1999.90;999.90;;;27.40;99.90;;;;;;5081000;28;20429;-82
2021/06/08 17:00:53;;;;;;;1999.90;999.90;;;28.40;99.90;;;;;;5099221;28;20208;-82
2021/06/08 17:03:19;;;;;;;1999.90;999.90;;;29.20;99.90;;;;;;5099274;28;20167;-81
2021/06/08 17:05:45;;;;;;;1999.90;999.90;;;30.00;99.90;;;;;;5098729;28;20401;-82
2021/06/08 17:08:11;;;;;;;1999.90;999.90;;;30.80;99.90;;;;;;5098821;28;20449;-82
2021/06/08 17:10:37;;;;;;;1999.90;999.90;;;31.20;99.90;;;;;;5080702;28;20189;-82
2021/06/08 17:13:03;;;;;;;1999.90;999.90;;;31.60;99.90;;;;;;5099233;28;20692;-82
2021/06/08 17:15:30;;;;;;;1999.90;999.90;;;31.70;99.90;;;;;;5098915;28;20634;-82
2021/06/08 17:17:57;;;;;;;1999.90;999.90;;;31.80;99.90;;;;;;5098685;28;20397;-81